Time;durP1;ratioP1;P1;durP2;ratioP2;P2;SDS_P1;SDS_P2;PMS_P1;PMS_P2;Temp;Humidity;BMP_temperature;BMP_pressure;BME280_temperature;BME280_humidity;BME280_pressure;Samples;Min_cycle;Max_cycle;Signal;HPM_P1;HPM_P2
2022/07/02 00:01:30;;;;;;;7.63;3.50;;;;;;;12.41;100.00;101990.03;5245298;28;20032;-71
2022/07/02 00:04:04;;;;;;;5.57;3.30;;;;;;;12.39;100.00;102000.00;5243808;28;20399;-71
2022/07/02 00:06:37;;;;;;;6.47;3.45;;;;;;;12.36;100.00;101995.69;5242025;28;20017;-71
2022/07/02 00:09:09;;;;;;;7.78;3.45;;;;;;;12.33;100.00;101998.56;5240450;28;20033;-71
2022/07/02 00:11:41;;;;;;;6.25;3.60;;;;;;;12.29;100.00;102001.53;5240660;28;20036;-71
2022/07/02 00:14:14;;;;;;;5.70;3.70;;;;;;;12.26;100.00;101996.41;5237185;28;20123;-71
2022/07/02 00:16:46;;;;;;;6.78;3.55;;;;;;;12.26;100.00;101993.72;5244370;28;20032;-72
2022/07/02 00:19:18;;;;;;;7.85;3.80;;;;;;;12.29;100.00;101996.19;5242329;28;20029;-71
2022/07/02 00:21:49;;;;;;;10.45;3.88;;;;;;;12.20;100.00;101991.47;5240863;28;20503;-71
2022/07/02 00:24:22;;;;;;;8.90;3.70;;;;;;;12.15;100.00;101991.75;5231388;28;20675;-71
2022/07/02 00:26:57;;;;;;;8.30;3.97;;;;;;;12.16;100.00;101986.28;5237198;28;20040;-71
2022/07/02 00:29:42;;;;;;;5.00;3.53;;;;;;;12.14;100.00;101992.72;5234237;28;21703;-71
2022/07/02 00:32:13;;;;;;;6.65;3.78;;;;;;;12.10;100.00;101984.03;5231946;28;21963;-71
2022/07/02 00:34:46;;;;;;;8.15;3.92;;;;;;;12.11;100.00;101995.56;5232722;28;20083;-71
2022/07/02 00:37:19;;;;;;;4.95;3.55;;;;;;;12.01;100.00;101986.44;5247560;28;20115;-71
2022/07/02 00:39:50;;;;;;;6.88;3.47;;;;;;;12.05;100.00;101993.31;5242838;28;20043;-71
2022/07/02 00:42:24;;;;;;;5.95;3.67;;;;;;;12.05;100.00;101993.31;5232068;28;20391;-71
2022/07/02 00:44:57;;;;;;;7.57;3.90;;;;;;;12.03;100.00;101998.75;5232222;28;20025;-71
2022/07/02 00:47:30;;;;;;;7.28;3.90;;;;;;;11.97;100.00;102001.81;5234401;28;20030;-71
2022/07/02 00:50:06;;;;;;;8.07;4.57;;;;;;;11.96;100.00;101997.41;5241019;28;20565;-71
2022/07/02 00:52:37;;;;;;;5.43;3.53;;;;;;;11.93;100.00;101994.94;5240498;28;20483;-71
2022/07/02 00:55:08;;;;;;;6.13;3.70;;;;;;;11.89;100.00;101994.28;5238810;28;20077;-71
2022/07/02 00:57:40;;;;;;;7.75;4.05;;;;;;;11.88;100.00;101984.50;5254811;28;20029;-71
2022/07/02 01:00:14;;;;;;;6.47;3.70;;;;;;;11.86;100.00;101989.09;5242117;28;20033;-71
2022/07/02 01:02:46;;;;;;;6.20;3.67;;;;;;;11.91;100.00;101980.81;5241381;28;20037;-71
2022/07/02 01:05:19;;;;;;;14.85;4.45;;;;;;;11.90;100.00;101987.97;5238992;28;20384;-71
2022/07/02 01:10:16;;;;;;;8.18;4.18;;;;;;;11.85;100.00;101982.03;5243135;28;20036;-71
2022/07/02 01:10:46;;;;;;;8.18;3.55;;;;;;;11.75;100.00;101984.44;5242084;28;20394;-71
2022/07/02 01:13:17;;;;;;;6.55;3.20;;;;;;;11.70;100.00;101983.84;5240807;28;20455;-71
2022/07/02 01:15:49;;;;;;;6.70;3.40;;;;;;;11.82;100.00;101976.88;5239458;28;20131;-71
2022/07/02 01:18:20;;;;;;;5.85;3.38;;;;;;;11.84;100.00;101976.78;5244958;28;20051;-71
2022/07/02 01:20:51;;;;;;;5.55;3.13;;;;;;;11.69;100.00;101975.94;5244386;28;20024;-71
2022/07/02 01:23:23;;;;;;;6.93;3.38;;;;;;;11.79;100.00;101971.69;5241787;28;20067;-71
2022/07/02 01:25:54;;;;;;;6.55;3.03;;;;;;;11.74;100.00;101981.84;5236011;28;20051;-71
2022/07/02 01:28:25;;;;;;;6.63;3.20;;;;;;;11.70;100.00;101981.19;5244051;28;20076;-71
2022/07/02 01:30:56;;;;;;;4.75;2.90;;;;;;;11.69;100.00;101976.78;5232814;28;20082;-71
2022/07/02 01:33:28;;;;;;;9.25;3.05;;;;;;;11.66;100.00;101976.09;5239566;28;20087;-71
2022/07/02 01:35:59;;;;;;;4.85;2.80;;;;;;;11.64;100.00;101984.25;5233206;28;20086;-71
2022/07/02 01:38:30;;;;;;;5.40;2.92;;;;;;;11.60;100.00;101985.38;5232701;28;20033;-71
2022/07/02 01:41:47;;;;;;;5.80;2.95;;;;;;;11.58;100.00;101977.47;5233034;28;20025;-71
2022/07/02 01:43:53;;;;;;;7.45;3.28;;;;;;;11.61;100.00;101980.91;5234971;28;20037;-71
2022/07/02 01:46:24;;;;;;;8.57;3.00;;;;;;;11.56;100.00;101982.06;5234515;28;20032;-71
2022/07/02 01:48:56;;;;;;;4.97;2.83;;;;;;;11.50;100.00;101987.75;5243397;28;20659;-70
2022/07/02 01:51:27;;;;;;;5.50;3.00;;;;;;;11.52;100.00;101976.97;5244896;28;20517;-71
2022/07/02 01:53:58;;;;;;;8.07;3.00;;;;;;;11.52;100.00;101988.53;5247582;28;20243;-71
2022/07/02 01:56:33;;;;;;;7.03;2.75;;;;;;;11.49;100.00;101978.03;5246127;28;20045;-71
2022/07/02 01:59:05;;;;;;;7.20;2.95;;;;;;;11.54;100.00;101975.94;5244908;28;20063;-71
2022/07/02 02:01:36;;;;;;;8.40;3.15;;;;;;;11.56;100.00;101981.19;5247126;28;20117;-71
2022/07/02 02:04:08;;;;;;;7.25;3.25;;;;;;;11.48;100.00;101980.81;5245413;28;20102;-71
2022/07/02 02:06:40;;;;;;;5.78;2.92;;;;;;;11.52;100.00;101974.31;5246532;28;20032;-71
2022/07/02 02:09:11;;;;;;;5.78;3.38;;;;;;;11.49;100.00;101975.38;5247024;28;20049;-70
2022/07/02 02:11:43;;;;;;;8.10;3.53;;;;;;;11.44;100.00;101977.47;5245523;28;20029;-71
2022/07/02 02:14:14;;;;;;;8.00;3.55;;;;;;;11.51;100.00;101978.81;5239610;28;20063;-70
2022/07/02 02:16:46;;;;;;;5.50;2.85;;;;;;;11.55;100.00;101972.31;5249686;28;20051;-70
2022/07/02 02:19:17;;;;;;;5.20;3.05;;;;;;;11.55;100.00;101974.97;5242451;28;20507;-70
2022/07/02 02:21:48;;;;;;;7.40;3.58;;;;;;;11.54;100.00;101970.59;5248632;28;21147;-70
2022/07/02 02:24:20;;;;;;;7.85;3.00;;;;;;;11.52;100.00;101968.97;5245841;28;20033;-71
2022/07/02 02:26:51;;;;;;;7.70;3.28;;;;;;;11.60;100.00;101966.66;5250020;28;20033;-71
2022/07/02 02:29:23;;;;;;;6.82;3.20;;;;;;;11.64;100.00;101970.00;5246208;28;20028;-70
2022/07/02 02:31:54;;;;;;;8.27;3.53;;;;;;;11.68;100.00;101985.78;5249531;28;20021;-70
2022/07/02 02:34:25;;;;;;;8.77;3.80;;;;;;;11.76;100.00;101979.94;5237284;28;20076;-70
2022/07/02 02:36:56;;;;;;;6.75;3.30;;;;;;;11.87;100.00;101982.78;5246732;28;20029;-71
2022/07/02 02:39:28;;;;;;;6.18;3.05;;;;;;;11.88;100.00;101983.66;5238726;28;20146;-71
2022/07/02 02:41:59;;;;;;;7.15;3.25;;;;;;;11.92;100.00;101978.03;5250278;28;20033;-70
2022/07/02 02:44:30;;;;;;;6.57;3.55;;;;;;;12.02;100.00;101977.44;5246032;28;20118;-70
2022/07/02 02:47:01;;;;;;;6.45;3.35;;;;;;;12.08;100.00;101979.72;5242048;28;20030;-71
2022/07/02 02:49:33;;;;;;;7.60;3.00;;;;;;;12.08;100.00;101977.03;5245600;28;20495;-70
2022/07/02 02:52:04;;;;;;;6.15;3.28;;;;;;;12.13;100.00;101985.63;5252004;28;20024;-71
2022/07/02 02:54:36;;;;;;;8.25;3.53;;;;;;;12.24;100.00;101982.28;5247526;28;20032;-70
2022/07/02 02:57:07;;;;;;;8.07;3.35;;;;;;;12.25;100.00;101986.66;5244503;28;20085;-71
2022/07/02 02:59:38;;;;;;;8.18;4.03;;;;;;;12.21;100.00;101982.47;5246402;28;20120;-71
2022/07/02 03:02:09;;;;;;;9.00;3.30;;;;;;;12.16;100.00;101980.94;5237039;28;20037;-70
2022/07/02 03:04:41;;;;;;;8.88;3.40;;;;;;;12.16;100.00;101975.59;5249888;28;20093;-71
2022/07/02 03:07:12;;;;;;;4.90;2.90;;;;;;;12.10;100.00;101976.00;5249608;28;20040;-71
2022/07/02 03:09:43;;;;;;;8.15;3.40;;;;;;;12.15;100.00;101983.72;5254620;28;20964;-70
2022/07/02 03:12:14;;;;;;;5.40;3.20;;;;;;;12.03;100.00;101981.84;5253308;28;20479;-71
2022/07/02 03:14:46;;;;;;;7.68;3.30;;;;;;;11.99;100.00;101985.69;5246257;28;20031;-70
2022/07/02 03:17:17;;;;;;;5.60;3.17;;;;;;;11.94;100.00;101992.16;5249329;28;20029;-71
2022/07/02 03:19:48;;;;;;;6.78;3.47;;;;;;;11.96;100.00;102000.94;5240698;28;20025;-71
2022/07/02 03:22:20;;;;;;;7.38;3.50;;;;;;;11.88;100.00;101994.34;5243397;28;20024;-70
2022/07/02 03:24:51;;;;;;;6.80;3.33;;;;;;;11.92;100.00;101998.56;5243175;28;20040;-71
2022/07/02 03:27:22;;;;;;;7.55;3.08;;;;;;;11.95;100.00;101998.38;5237853;28;20079;-70
2022/07/02 03:29:53;;;;;;;9.07;3.20;;;;;;;11.98;100.00;102000.84;5231701;28;20032;-71
2022/07/02 03:32:28;;;;;;;6.43;3.60;;;;;;;11.92;100.00;101998.56;5239357;28;20021;-71
2022/07/02 03:34:59;;;;;;;7.45;3.25;;;;;;;11.95;100.00;102004.59;5232827;28;20060;-70
2022/07/02 03:37:31;;;;;;;6.82;3.58;;;;;;;12.05;100.00;102002.19;5234303;28;20163;-71
2022/07/02 03:40:02;;;;;;;4.97;2.80;;;;;;;12.04;100.00;102013.84;5246481;28;20035;-70
2022/07/02 03:42:34;;;;;;;8.23;3.03;;;;;;;12.13;100.00;102012.38;5235933;28;20029;-70
2022/07/02 03:45:05;;;;;;;8.75;3.58;;;;;;;12.09;100.00;102019.75;5231506;28;20051;-70
2022/07/02 03:47:37;;;;;;;7.20;3.60;;;;;;;12.17;100.00;102013.91;5237738;28;20036;-70
2022/07/02 03:50:08;;;;;;;6.75;3.30;;;;;;;12.19;100.00;102017.34;5232600;28;20025;-71
2022/07/02 03:52:40;;;;;;;5.15;3.00;;;;;;;12.14;100.00;102014.13;5244272;28;20036;-70
2022/07/02 03:55:11;;;;;;;7.65;3.15;;;;;;;12.15;100.00;102021.16;5240586;28;20519;-70
2022/07/02 03:57:42;;;;;;;9.38;2.83;;;;;;;12.18;100.00;102014.75;5231044;28;20037;-70
2022/07/02 04:00:14;;;;;;;7.47;3.38;;;;;;;12.19;100.00;102016.47;5232275;28;20075;-71
2022/07/02 04:02:45;;;;;;;7.55;3.30;;;;;;;12.32;100.00;102020.09;5233662;28;20044;-71
2022/07/02 04:05:16;;;;;;;6.90;3.13;;;;;;;12.33;100.00;102014.63;5229304;28;20352;-70
2022/07/02 04:07:48;;;;;;;6.75;3.63;;;;;;;12.38;100.00;102016.16;5234105;28;20029;-70
2022/07/02 04:10:19;;;;;;;7.88;3.20;;;;;;;12.41;100.00;102021.31;5231543;28;20040;-70
2022/07/02 04:12:51;;;;;;;8.25;3.13;;;;;;;12.41;100.00;102024.00;5234488;28;20029;-70
2022/07/02 04:15:22;;;;;;;7.10;3.45;;;;;;;12.43;100.00;102022.91;5234875;28;20423;-71
2022/07/02 04:17:53;;;;;;;5.53;2.92;;;;;;;12.38;100.00;102021.50;5230928;28;20151;-71
2022/07/02 04:20:26;;;;;;;11.52;3.78;;;;;;;12.35;100.00;102022.56;5232375;28;20033;-71
2022/07/02 04:22:57;;;;;;;7.97;3.90;;;;;;;12.32;100.00;102028.13;5239815;28;20063;-71
2022/07/02 04:25:28;;;;;;;6.85;3.30;;;;;;;12.33;100.00;102020.00;5254337;28;20468;-71
2022/07/02 04:28:00;;;;;;;5.97;3.47;;;;;;;12.38;100.00;102019.69;5244376;28;20674;-71
2022/07/02 04:30:31;;;;;;;7.78;3.47;;;;;;;12.46;100.00;102024.53;5232065;28;20671;-71
2022/07/02 04:33:02;;;;;;;5.03;3.38;;;;;;;12.58;100.00;102025.53;5231623;28;20082;-71
2022/07/02 04:35:33;;;;;;;10.55;3.75;;;;;;;12.73;100.00;102025.41;5249421;28;20063;-71
2022/07/02 04:38:05;;;;;;;9.73;3.90;;;;;;;12.75;100.00;102020.78;5235266;28;20036;-71
2022/07/02 04:40:36;;;;;;;7.53;3.70;;;;;;;12.85;100.00;102021.03;5240185;28;20507;-71
2022/07/02 04:43:07;;;;;;;7.40;3.33;;;;;;;12.90;100.00;102023.38;5229682;28;20028;-71
2022/07/02 04:45:39;;;;;;;7.63;3.33;;;;;;;12.98;100.00;102025.53;5226858;28;20099;-71
2022/07/02 04:48:10;;;;;;;5.47;3.10;;;;;;;13.09;100.00;102023.84;5232025;28;20455;-71
2022/07/02 04:50:41;;;;;;;7.80;3.40;;;;;;;13.12;100.00;102017.44;5243536;28;20033;-71
2022/07/02 04:53:13;;;;;;;8.40;4.00;;;;;;;13.22;100.00;102013.16;5240027;28;20017;-71
2022/07/02 04:55:44;;;;;;;7.38;3.40;;;;;;;13.22;100.00;102025.72;5246975;28;20071;-71
2022/07/02 04:58:15;;;;;;;8.77;3.72;;;;;;;13.17;100.00;102026.00;5249391;28;20037;-71
2022/07/02 05:00:46;;;;;;;8.68;3.35;;;;;;;13.23;100.00;102033.66;5241253;28;20028;-71
2022/07/02 05:03:18;;;;;;;7.68;3.42;;;;;;;13.24;100.00;102027.31;5241294;28;20025;-71
2022/07/02 05:05:49;;;;;;;5.82;3.13;;;;;;;13.30;100.00;102021.53;5243289;28;20024;-71
2022/07/02 05:08:26;;;;;;;7.20;3.83;;;;;;;13.28;100.00;102028.81;5240894;28;20029;-71
2022/07/02 05:10:58;;;;;;;7.47;3.60;;;;;;;13.33;100.00;102021.34;5237569;28;20033;-71
2022/07/02 05:13:29;;;;;;;4.95;2.88;;;;;;;13.40;100.00;102023.59;5241100;28;20548;-71
2022/07/02 05:16:00;;;;;;;5.50;3.13;;;;;;;13.39;100.00;102020.06;5237380;28;20029;-71
2022/07/02 05:18:32;;;;;;;7.80;3.25;;;;;;;13.38;100.00;102023.69;5236154;28;20026;-71
2022/07/02 05:21:04;;;;;;;6.60;3.33;;;;;;;13.42;100.00;102017.16;5235524;28;20040;-71
2022/07/02 05:23:35;;;;;;;5.35;2.80;;;;;;;13.42;99.56;102019.81;5237200;28;20025;-71
2022/07/02 05:26:07;;;;;;;4.70;2.88;;;;;;;13.38;100.00;102023.69;5236730;28;20033;-71
2022/07/02 05:28:38;;;;;;;6.22;3.05;;;;;;;13.38;100.00;102021.00;5234126;28;20079;-71
2022/07/02 05:31:09;;;;;;;7.40;3.05;;;;;;;13.38;100.00;102025.53;5241790;28;20116;-71
2022/07/02 05:33:40;;;;;;;6.53;3.20;;;;;;;13.39;100.00;102022.75;5241695;28;20029;-70
2022/07/02 05:36:12;;;;;;;7.95;3.17;;;;;;;13.42;100.00;102029.69;5240192;28;20013;-70
2022/07/02 05:38:43;;;;;;;8.18;3.00;;;;;;;13.36;100.00;102036.34;5238772;28;20505;-70
2022/07/02 05:41:15;;;;;;;5.93;2.80;;;;;;;13.39;100.00;102025.41;5241473;28;20049;-70
2022/07/02 05:43:46;;;;;;;8.02;2.83;;;;;;;13.43;99.32;102032.28;5237746;28;20029;-70
2022/07/02 05:46:17;;;;;;;5.85;2.17;;;;;;;13.46;98.37;102040.13;5240805;28;20070;-70
2022/07/02 05:48:49;;;;;;;5.18;2.35;;;;;;;13.50;99.00;102035.38;5242215;28;20892;-70
2022/07/02 05:51:20;;;;;;;4.70;2.25;;;;;;;13.51;97.44;102037.97;5241671;28;20546;-70
2022/07/02 05:53:51;;;;;;;6.72;2.50;;;;;;;13.53;98.97;102035.19;5239280;28;20151;-70
2022/07/02 05:56:22;;;;;;;6.60;2.25;;;;;;;13.58;96.99;102032.19;5240938;28;20060;-70
2022/07/02 05:58:54;;;;;;;7.07;2.65;;;;;;;13.61;98.64;102040.84;5240942;28;20029;-70
2022/07/02 06:01:25;;;;;;;3.83;2.05;;;;;;;13.59;100.00;102039.25;5239165;28;20029;-71
2022/07/02 06:03:56;;;;;;;4.78;2.05;;;;;;;13.66;99.82;102040.56;5236972;28;20036;-70
2022/07/02 06:09:17;;;;;;;4.55;1.70;;;;;;;13.75;97.20;102034.53;5238412;28;20060;-70
2022/07/02 06:11:49;;;;;;;4.47;1.95;;;;;;;13.79;94.00;102044.09;5240598;28;20630;-71
2022/07/02 06:14:20;;;;;;;4.38;1.77;;;;;;;13.87;93.24;102039.00;5239334;28;20510;-70
2022/07/02 06:16:51;;;;;;;5.68;1.83;;;;;;;13.94;93.50;102042.13;5244023;28;20112;-70
2022/07/02 06:19:22;;;;;;;6.57;1.92;;;;;;;14.04;93.44;102051.22;5238448;28;20055;-71
2022/07/02 06:21:54;;;;;;;5.50;2.05;;;;;;;14.22;91.55;102050.88;5240269;28;20049;-70
2022/07/02 06:24:25;;;;;;;6.88;2.17;;;;;;;14.27;93.06;102046.03;5237201;28;20033;-70
2022/07/02 06:26:56;;;;;;;5.20;1.70;;;;;;;14.58;94.74;102041.97;5235751;28;20463;-70
2022/07/02 06:29:28;;;;;;;5.18;1.40;;;;;;;15.06;90.63;102036.53;5244818;28;20474;-71
2022/07/02 06:31:59;;;;;;;5.47;1.92;;;;;;;15.54;87.72;102043.63;5244056;28;20151;-71
2022/07/02 06:34:30;;;;;;;5.05;1.63;;;;;;;15.88;85.51;102043.69;5244248;28;20033;-71
2022/07/02 06:37:01;;;;;;;3.17;1.08;;;;;;;16.08;84.10;102050.13;5243807;28;20164;-71
2022/07/02 06:39:33;;;;;;;4.55;1.25;;;;;;;16.23;79.53;102051.59;5242125;28;20021;-71
2022/07/02 06:42:20;;;;;;;7.28;1.13;;;;;;;16.24;77.27;102042.53;5244829;28;20040;-71
2022/07/02 06:44:55;;;;;;;3.25;0.77;;;;;;;16.18;76.08;102053.78;5241278;28;20048;-71
2022/07/02 06:47:27;;;;;;;3.20;1.13;;;;;;;16.21;72.41;102048.16;5259529;28;20116;-71
2022/07/02 06:50:00;;;;;;;4.75;1.00;;;;;;;16.25;72.27;102046.06;5242329;28;20536;-71
2022/07/02 06:52:32;;;;;;;4.63;0.80;;;;;;;16.45;73.06;102048.00;5245358;28;20108;-71
2022/07/02 06:55:04;;;;;;;1.75;0.60;;;;;;;16.58;70.27;102046.97;5240443;28;20071;-71
2022/07/02 06:57:35;;;;;;;5.22;0.75;;;;;;;16.53;69.04;102036.59;5253400;28;20033;-71
2022/07/02 07:00:07;;;;;;;2.88;0.70;;;;;;;16.58;68.74;102044.28;5240343;28;20505;-71
2022/07/02 07:02:38;;;;;;;2.78;0.73;;;;;;;16.59;70.06;102044.16;5246442;28;20040;-71
2022/07/02 07:05:10;;;;;;;2.67;0.73;;;;;;;16.64;69.47;102051.84;5249998;28;20583;-71
2022/07/02 07:07:41;;;;;;;1.77;0.40;;;;;;;16.62;68.33;102043.88;5245209;28;20116;-71
2022/07/02 07:10:13;;;;;;;2.53;0.50;;;;;;;16.71;67.54;102047.66;5241639;28;20036;-71
2022/07/02 07:12:44;;;;;;;2.95;0.55;;;;;;;16.78;68.60;102048.88;5252379;28;20046;-71
2022/07/02 07:15:16;;;;;;;1.80;0.50;;;;;;;16.84;68.01;102042.16;5243857;28;20025;-71
2022/07/02 07:17:47;;;;;;;3.10;0.60;;;;;;;16.84;68.40;102047.53;5242457;28;20175;-71
2022/07/02 07:20:19;;;;;;;3.40;0.68;;;;;;;17.00;68.28;102044.41;5248874;28;20104;-71
2022/07/02 07:22:50;;;;;;;2.63;0.73;;;;;;;17.01;68.46;102052.34;5245154;28;20868;-71
2022/07/02 07:25:22;;;;;;;3.20;0.70;;;;;;;17.19;68.59;102063.41;5243739;28;20033;-72
2022/07/02 07:27:54;;;;;;;2.88;0.77;;;;;;;17.21;68.79;102057.91;5244973;28;20036;-72
2022/07/02 07:30:25;;;;;;;3.95;0.90;;;;;;;17.38;67.42;102056.44;5247231;28;20055;-71
2022/07/02 07:32:57;;;;;;;2.00;0.60;;;;;;;17.43;66.16;102055.06;5246687;28;20608;-72
2022/07/02 07:35:28;;;;;;;5.47;0.88;;;;;;;17.46;66.55;102051.25;5241585;28;20052;-71
2022/07/02 07:38:00;;;;;;;4.90;0.68;;;;;;;17.53;66.38;102038.94;5239022;28;20037;-72
2022/07/02 07:40:31;;;;;;;4.05;0.65;;;;;;;17.56;67.87;102054.84;5242983;28;20055;-71
2022/07/02 07:43:03;;;;;;;3.53;0.70;;;;;;;17.73;65.87;102049.81;5237830;28;20478;-71
2022/07/02 07:45:34;;;;;;;4.47;0.90;;;;;;;17.78;65.81;102058.38;5241224;28;20024;-72
2022/07/02 07:48:06;;;;;;;3.35;0.60;;;;;;;17.92;65.94;102054.50;5233580;28;20024;-71
2022/07/02 07:50:37;;;;;;;4.10;0.70;;;;;;;18.12;66.24;102055.41;5240493;28;20025;-73
2022/07/02 07:53:08;;;;;;;3.00;0.68;;;;;;;18.12;63.08;102047.28;5249494;28;20120;-74
2022/07/02 07:55:39;;;;;;;4.13;0.90;;;;;;;18.16;65.43;102043.31;5249307;28;20053;-73
2022/07/02 07:58:11;;;;;;;3.17;0.75;;;;;;;18.38;63.85;102044.97;5249088;28;20027;-74
2022/07/02 08:00:42;;;;;;;5.22;0.73;;;;;;;18.29;64.75;102052.03;5247783;28;20032;-74
2022/07/02 08:03:14;;;;;;;4.85;0.82;;;;;;;18.35;60.19;102046.09;5248793;28;20041;-72
2022/07/02 08:05:46;;;;;;;2.40;0.52;;;;;;;18.47;63.09;102045.97;5242349;28;20062;-72
2022/07/02 08:08:18;;;;;;;4.20;0.90;;;;;;;18.55;64.82;102043.44;5237404;28;20028;-70
2022/07/02 08:10:50;;;;;;;3.65;0.70;;;;;;;18.70;62.17;102043.88;5244708;28;20039;-74
2022/07/02 08:13:21;;;;;;;4.20;0.70;;;;;;;18.89;63.16;102043.91;5243088;28;20016;-75
2022/07/02 08:15:52;;;;;;;3.47;1.05;;;;;;;18.84;61.45;102035.34;5234933;28;20471;-70
2022/07/02 08:18:24;;;;;;;2.67;0.68;;;;;;;18.85;62.66;102039.78;5245873;28;20025;-72
2022/07/02 08:20:55;;;;;;;3.65;0.70;;;;;;;18.92;61.32;102034.63;5243594;28;20048;-76
2022/07/02 08:23:27;;;;;;;4.10;0.90;;;;;;;18.95;59.61;102043.31;5241055;28;21801;-72
2022/07/02 08:25:58;;;;;;;4.70;0.80;;;;;;;18.93;61.08;102034.50;5256657;28;20044;-73
2022/07/02 08:28:29;;;;;;;2.85;0.60;;;;;;;19.17;62.18;102030.47;5253646;28;20439;-72
2022/07/02 08:31:01;;;;;;;2.92;0.80;;;;;;;19.13;59.80;102029.91;5241979;28;20029;-74
2022/07/02 08:33:32;;;;;;;2.20;0.60;;;;;;;19.08;59.33;102031.34;5251317;28;20386;-73
2022/07/02 08:36:03;;;;;;;3.60;0.77;;;;;;;19.26;59.44;102028.78;5241562;28;20773;-76
2022/07/02 08:38:35;;;;;;;2.83;0.70;;;;;;;19.33;58.86;102029.88;5247891;28;20025;-75
2022/07/02 08:41:06;;;;;;;4.07;1.05;;;;;;;19.49;60.02;102024.72;5248817;28;20033;-76
2022/07/02 08:43:40;;;;;;;4.70;0.93;;;;;;;19.56;60.30;102033.13;5242081;28;20037;-72
2022/07/02 08:46:13;;;;;;;2.00;0.65;;;;;;;19.60;60.36;102026.41;5235723;28;20041;-74
2022/07/02 08:48:45;;;;;;;3.17;0.75;;;;;;;19.65;61.57;102034.06;5235657;28;20025;-76
2022/07/02 08:51:20;;;;;;;3.90;0.80;;;;;;;19.76;61.47;102023.94;5233046;28;20037;-75
2022/07/02 08:53:51;;;;;;;3.58;0.90;;;;;;;19.92;60.91;102027.84;5236776;28;20033;-74
2022/07/02 08:56:23;;;;;;;3.25;0.80;;;;;;;20.10;61.32;102017.94;5256896;28;20047;-75
2022/07/02 08:58:56;;;;;;;3.67;0.82;;;;;;;20.09;60.56;102010.78;5253329;28;20032;-78
2022/07/02 09:01:27;;;;;;;4.65;1.20;;;;;;;20.23;60.69;102012.16;5245895;28;20044;-75
2022/07/02 09:04:01;;;;;;;4.88;1.17;;;;;;;20.35;60.85;102015.50;5244268;28;20037;-77
2022/07/02 09:06:36;;;;;;;4.07;1.00;;;;;;;20.45;60.03;102018.97;5247000;28;20021;-75
2022/07/02 09:09:09;;;;;;;3.63;1.20;;;;;;;20.38;60.09;102015.16;5234597;28;20024;-76
2022/07/02 09:11:40;;;;;;;2.95;0.82;;;;;;;20.39;57.92;102010.63;5252079;28;20124;-73
2022/07/02 09:14:12;;;;;;;4.82;0.85;;;;;;;20.50;60.11;102007.66;5255625;28;20047;-74
2022/07/02 09:16:45;;;;;;;2.92;0.90;;;;;;;20.50;59.49;102008.53;5244559;28;20028;-77
2022/07/02 09:19:17;;;;;;;3.70;0.80;;;;;;;20.60;60.65;102007.66;5249085;28;20187;-73
2022/07/02 09:21:51;;;;;;;3.78;0.98;;;;;;;20.75;59.12;102003.38;5250393;28;20028;-76
2022/07/02 09:24:36;;;;;;;4.60;0.90;;;;;;;20.76;59.37;101988.78;5251600;28;20032;-74
2022/07/02 09:27:09;;;;;;;2.67;0.80;;;;;;;20.69;58.95;102001.28;5243074;28;20021;-75
2022/07/02 09:29:54;;;;;;;3.25;0.90;;;;;;;20.82;58.16;101990.03;5239738;28;20479;-73
2022/07/02 09:32:25;;;;;;;4.30;0.90;;;;;;;20.81;58.29;101985.63;5239168;28;20028;-74
2022/07/02 09:34:56;;;;;;;4.70;1.00;;;;;;;20.79;55.96;101985.78;5244202;28;20416;-73
2022/07/02 09:37:28;;;;;;;3.72;1.00;;;;;;;20.84;55.91;101988.84;5241194;28;20539;-76
2022/07/02 09:40:02;;;;;;;3.97;0.98;;;;;;;21.08;56.08;101981.94;5246600;28;20108;-74
2022/07/02 09:42:34;;;;;;;2.92;1.00;;;;;;;21.21;55.68;101978.78;5252556;28;20178;-75
2022/07/02 09:45:10;;;;;;;4.00;0.80;;;;;;;21.27;55.10;101970.03;5244908;28;20029;-75
2022/07/02 09:47:53;;;;;;;3.65;0.95;;;;;;;21.39;55.98;101970.59;5252258;28;20585;-76
2022/07/02 09:50:24;;;;;;;2.50;0.77;;;;;;;21.31;53.85;101966.81;5253243;28;20475;-75
2022/07/02 09:52:58;;;;;;;3.60;1.02;;;;;;;21.41;53.96;101965.84;5259580;28;20055;-75
2022/07/02 09:55:31;;;;;;;3.35;0.93;;;;;;;21.33;55.67;101961.22;5249345;28;20117;-76
2022/07/02 09:58:04;;;;;;;4.65;1.00;;;;;;;21.70;55.20;101954.63;5245913;28;20440;-75
2022/07/02 10:00:44;;;;;;;3.78;0.98;;;;;;;21.50;56.62;101956.78;5241907;28;20109;-74
2022/07/02 10:03:15;;;;;;;3.30;1.05;;;;;;;21.74;55.18;101959.56;5233592;28;20033;-74
2022/07/02 10:05:52;;;;;;;5.18;1.17;;;;;;;21.70;55.22;101952.75;5247646;28;20029;-74
2022/07/02 10:08:23;;;;;;;3.30;1.00;;;;;;;21.70;54.36;101958.19;5243345;28;20029;-75
2022/07/02 10:10:55;;;;;;;4.68;1.20;;;;;;;21.77;55.15;101955.69;5243207;28;20048;-74
2022/07/02 10:13:29;;;;;;;2.90;1.13;;;;;;;22.06;54.30;101957.13;5247428;28;20068;-75
2022/07/02 10:16:04;;;;;;;4.93;1.00;;;;;;;22.12;52.07;101951.88;5249372;28;20494;-74
2022/07/02 10:18:35;;;;;;;3.28;0.98;;;;;;;22.36;52.58;101941.25;5240686;28;20047;-75
2022/07/02 10:21:10;;;;;;;2.97;0.65;;;;;;;22.42;52.57;101952.31;5242848;28;20021;-74
2022/07/02 10:23:45;;;;;;;4.53;0.60;;;;;;;22.39;53.47;101941.75;5241731;28;20340;-75
2022/07/02 10:26:17;;;;;;;1.98;0.70;;;;;;;22.17;53.93;101942.38;5246345;28;20037;-75
2022/07/02 10:28:49;;;;;;;3.85;0.90;;;;;;;22.39;51.31;101946.34;5249293;28;20032;-75
2022/07/02 10:31:20;;;;;;;2.30;0.73;;;;;;;22.53;53.49;101948.38;5242866;28;20036;-75
2022/07/02 10:34:13;;;;;;;4.57;0.88;;;;;;;22.75;53.44;101943.31;5245131;28;20371;-73
2022/07/02 10:36:45;;;;;;;4.40;0.60;;;;;;;23.10;50.81;101940.22;5251371;28;20498;-76
2022/07/02 10:39:16;;;;;;;3.15;0.68;;;;;;;23.11;47.02;101935.63;5245843;28;20026;-77
2022/07/02 10:41:48;;;;;;;3.38;1.00;;;;;;;23.07;52.25;101932.41;5248373;28;20029;-72
2022/07/02 10:44:19;;;;;;;1.88;0.70;;;;;;;23.22;50.74;101927.09;5246562;28;20017;-74
2022/07/02 10:46:50;;;;;;;2.65;0.82;;;;;;;23.07;47.84;101937.00;5243070;28;20028;-74
2022/07/02 10:49:25;;;;;;;3.25;0.57;;;;;;;23.42;48.80;101930.25;5237245;28;20029;-73
2022/07/02 10:51:57;;;;;;;2.83;0.60;;;;;;;23.52;45.78;101931.94;5243031;28;20037;-74
2022/07/02 10:54:32;;;;;;;3.80;0.70;;;;;;;23.62;48.40;101933.41;5243719;28;20579;-73
2022/07/02 10:57:03;;;;;;;3.28;0.80;;;;;;;23.96;45.16;101932.25;5244030;28;20089;-74
2022/07/02 10:59:38;;;;;;;2.58;0.70;;;;;;;24.02;47.58;101936.97;5251059;28;20543;-74
2022/07/02 11:02:15;;;;;;;4.05;0.70;;;;;;;23.94;45.42;101931.56;5243361;28;20033;-74
2022/07/02 11:04:46;;;;;;;3.97;0.60;;;;;;;23.92;44.21;101924.63;5256673;28;20105;-74
2022/07/02 11:07:17;;;;;;;2.42;0.80;;;;;;;24.11;43.73;101921.41;5239791;28;20021;-74
2022/07/02 11:09:51;;;;;;;3.45;0.60;;;;;;;24.31;44.56;101926.41;5250479;28;20408;-75
2022/07/02 11:12:27;;;;;;;3.30;0.60;;;;;;;24.44;44.29;101926.63;5251487;28;20021;-74
2022/07/02 11:14:59;;;;;;;1.90;0.60;;;;;;;24.56;44.24;101927.91;5245734;28;20047;-74
2022/07/02 11:17:36;;;;;;;1.58;0.50;;;;;;;24.64;42.64;101921.53;5258234;28;20029;-75
2022/07/02 11:20:08;;;;;;;4.72;0.70;;;;;;;24.65;42.02;101921.34;5242343;28;20035;-76
2022/07/02 11:22:40;;;;;;;3.17;0.60;;;;;;;24.75;46.07;101921.09;5240652;28;20535;-73
2022/07/02 11:25:11;;;;;;;1.80;0.45;;;;;;;24.89;42.63;101911.25;5246027;28;20151;-75
2022/07/02 11:27:42;;;;;;;1.52;0.50;;;;;;;25.04;41.89;101908.53;5246980;28;20020;-73
2022/07/02 11:30:14;;;;;;;2.05;0.50;;;;;;;24.70;42.07;101909.91;5252442;28;20032;-73
2022/07/02 11:32:45;;;;;;;1.38;0.30;;;;;;;25.00;40.30;101905.31;5252351;28;20094;-74
2022/07/02 11:35:17;;;;;;;4.88;0.60;;;;;;;24.88;39.67;101905.97;5240186;28;20025;-73
2022/07/02 11:37:49;;;;;;;2.25;0.50;;;;;;;24.94;40.36;101902.50;5245211;28;20490;-73
2022/07/02 11:40:21;;;;;;;1.55;0.43;;;;;;;25.14;41.93;101895.44;5253647;28;20395;-74
2022/07/02 11:42:53;;;;;;;2.17;0.37;;;;;;;24.94;40.12;101894.31;5249630;28;20036;-73
2022/07/02 11:45:24;;;;;;;1.50;0.30;;;;;;;24.96;42.24;101886.78;5241738;28;20054;-73
2022/07/02 11:47:56;;;;;;;2.20;0.43;;;;;;;25.16;39.85;101882.44;5251659;28;20037;-74